sensor_id;sensor_type;location;lat;lon;timestamp;pressure;altitude;pressure_sealevel;temperature;humidity
81372;BME280;70827;52.206;5.294;2024-03-02T00:00:20;99640.78;;;8.28;67.74
81372;BME280;70827;52.206;5.294;2024-03-02T00:02:46;99654.66;;;8.22;67.86
81372;BME280;70827;52.206;5.294;2024-03-02T00:05:13;99641.78;;;8.21;68.25
81372;BME280;70827;52.206;5.294;2024-03-02T00:07:45;99643.63;;;8.15;68.78
81372;BME280;70827;52.206;5.294;2024-03-02T00:10:14;99638.41;;;8.19;68.93
81372;BME280;70827;52.206;5.294;2024-03-02T00:12:41;99645.22;;;8.21;68.79
81372;BME280;70827;52.206;5.294;2024-03-02T00:15:26;99668.47;;;8.20;68.44
81372;BME280;70827;52.206;5.294;2024-03-02T00:17:58;99664.31;;;8.14;68.84
81372;BME280;70827;52.206;5.294;2024-03-02T00:20:24;99664.16;;;8.20;68.84
81372;BME280;70827;52.206;5.294;2024-03-02T00:22:52;99666.78;;;8.19;68.68
81372;BME280;70827;52.206;5.294;2024-03-02T00:25:21;99697.56;;;8.28;68.03
81372;BME280;70827;52.206;5.294;2024-03-02T00:27:47;99690.69;;;8.28;68.10
81372;BME280;70827;52.206;5.294;2024-03-02T00:30:36;99724.13;;;8.33;67.89
81372;BME280;70827;52.206;5.294;2024-03-02T00:33:07;99726.50;;;8.43;67.31
81372;BME280;70827;52.206;5.294;2024-03-02T00:35:32;99750.63;;;8.42;67.73
81372;BME280;70827;52.206;5.294;2024-03-02T00:38:03;99779.56;;;8.17;68.44
81372;BME280;70827;52.206;5.294;2024-03-02T00:40:29;99738.75;;;7.94;70.04
81372;BME280;70827;52.206;5.294;2024-03-02T00:42:55;99748.38;;;7.85;71.38
81372;BME280;70827;52.206;5.294;2024-03-02T00:45:21;99755.50;;;7.74;72.18
81372;BME280;70827;52.206;5.294;2024-03-02T00:47:46;99747.06;;;7.65;73.13
81372;BME280;70827;52.206;5.294;2024-03-02T00:50:12;99751.44;;;7.61;73.60
81372;BME280;70827;52.206;5.294;2024-03-02T00:52:38;99755.06;;;7.51;74.27
81372;BME280;70827;52.206;5.294;2024-03-02T00:55:07;99765.28;;;7.55;74.85
81372;BME280;70827;52.206;5.294;2024-03-02T00:57:33;99769.06;;;7.36;75.51
81372;BME280;70827;52.206;5.294;2024-03-02T00:59:59;99770.97;;;7.28;76.48
81372;BME280;70827;52.206;5.294;2024-03-02T01:02:25;99770.47;;;7.08;77.18
81372;BME280;70827;52.206;5.294;2024-03-02T01:04:50;99770.59;;;6.99;78.51
81372;BME280;70827;52.206;5.294;2024-03-02T01:07:16;99774.09;;;6.94;79.63
81372;BME280;70827;52.206;5.294;2024-03-02T01:09:42;99773.31;;;6.91;80.35
81372;BME280;70827;52.206;5.294;2024-03-02T01:12:10;99785.38;;;6.87;81.05
81372;BME280;70827;52.206;5.294;2024-03-02T01:14:35;99779.38;;;6.85;81.43
81372;BME280;70827;52.206;5.294;2024-03-02T01:17:01;99756.91;;;6.95;81.41
81372;BME280;70827;52.206;5.294;2024-03-02T01:19:27;99753.34;;;7.02;82.12
81372;BME280;70827;52.206;5.294;2024-03-02T01:21:52;99775.13;;;6.84;81.96
81372;BME280;70827;52.206;5.294;2024-03-02T01:24:18;99769.94;;;6.86;82.36
81372;BME280;70827;52.206;5.294;2024-03-02T01:26:44;99777.50;;;6.97;82.76
81372;BME280;70827;52.206;5.294;2024-03-02T01:29:12;99777.91;;;6.71;82.34
81372;BME280;70827;52.206;5.294;2024-03-02T01:31:37;99783.03;;;6.71;82.73
81372;BME280;70827;52.206;5.294;2024-03-02T01:34:03;99777.19;;;6.61;82.95
81372;BME280;70827;52.206;5.294;2024-03-02T01:36:28;99782.19;;;6.73;82.83
81372;BME280;70827;52.206;5.294;2024-03-02T01:38:54;99774.34;;;6.79;82.96
81372;BME280;70827;52.206;5.294;2024-03-02T01:41:20;99785.59;;;6.74;82.94
81372;BME280;70827;52.206;5.294;2024-03-02T01:43:45;99793.56;;;6.58;83.14
81372;BME280;70827;52.206;5.294;2024-03-02T01:46:13;99789.13;;;6.67;82.92
81372;BME280;70827;52.206;5.294;2024-03-02T01:48:39;99788.31;;;6.63;83.05
81372;BME280;70827;52.206;5.294;2024-03-02T01:51:05;99789.91;;;6.73;83.07
81372;BME280;70827;52.206;5.294;2024-03-02T01:53:31;99803.81;;;6.61;82.80
81372;BME280;70827;52.206;5.294;2024-03-02T01:55:57;99790.75;;;6.74;82.76
81372;BME280;70827;52.206;5.294;2024-03-02T01:58:23;99796.91;;;6.63;82.87
81372;BME280;70827;52.206;5.294;2024-03-02T02:00:48;99799.44;;;6.67;82.76
81372;BME280;70827;52.206;5.294;2024-03-02T02:03:16;99789.31;;;6.56;83.03
81372;BME280;70827;52.206;5.294;2024-03-02T02:05:42;99797.94;;;6.50;82.73
81372;BME280;70827;52.206;5.294;2024-03-02T02:08:08;99784.22;;;6.50;83.34
81372;BME280;70827;52.206;5.294;2024-03-02T02:10:33;99797.88;;;6.55;83.54
81372;BME280;70827;52.206;5.294;2024-03-02T02:12:59;99787.72;;;6.46;83.62
81372;BME280;70827;52.206;5.294;2024-03-02T02:15:26;99808.34;;;6.43;83.58
81372;BME280;70827;52.206;5.294;2024-03-02T02:17:51;99794.66;;;6.41;84.01
81372;BME280;70827;52.206;5.294;2024-03-02T02:20:20;99797.25;;;6.41;84.21
81372;BME280;70827;52.206;5.294;2024-03-02T02:22:58;99804.16;;;6.34;84.42
81372;BME280;70827;52.206;5.294;2024-03-02T02:25:24;99803.44;;;6.26;84.81
81372;BME280;70827;52.206;5.294;2024-03-02T02:27:49;99799.16;;;6.25;85.03
81372;BME280;70827;52.206;5.294;2024-03-02T02:30:18;99777.63;;;6.30;85.21
81372;BME280;70827;52.206;5.294;2024-03-02T02:32:44;99799.19;;;6.22;85.34
81372;BME280;70827;52.206;5.294;2024-03-02T02:35:10;99792.97;;;6.37;85.25
81372;BME280;70827;52.206;5.294;2024-03-02T02:37:35;99790.53;;;6.27;85.48
81372;BME280;70827;52.206;5.294;2024-03-02T02:40:04;99778.53;;;6.28;85.57
81372;BME280;70827;52.206;5.294;2024-03-02T02:42:30;99804.34;;;6.20;85.82
81372;BME280;70827;52.206;5.294;2024-03-02T02:44:56;99798.53;;;6.04;86.09
81372;BME280;70827;52.206;5.294;2024-03-02T02:47:22;99805.13;;;6.27;86.46
81372;BME280;70827;52.206;5.294;2024-03-02T02:49:47;99788.19;;;6.11;86.64
81372;BME280;70827;52.206;5.294;2024-03-02T02:52:13;99804.34;;;6.20;86.20
81372;BME280;70827;52.206;5.294;2024-03-02T02:54:38;99808.63;;;6.20;86.61
81372;BME280;70827;52.206;5.294;2024-03-02T02:57:07;99796.72;;;6.14;86.65
81372;BME280;70827;52.206;5.294;2024-03-02T02:59:32;99806.22;;;6.09;86.74
81372;BME280;70827;52.206;5.294;2024-03-02T03:01:58;99816.47;;;6.12;87.06
81372;BME280;70827;52.206;5.294;2024-03-02T03:04:24;99817.28;;;6.14;86.83
81372;BME280;70827;52.206;5.294;2024-03-02T03:06:49;99804.53;;;6.07;86.83
81372;BME280;70827;52.206;5.294;2024-03-02T03:09:15;99811.47;;;6.00;86.82
81372;BME280;70827;52.206;5.294;2024-03-02T03:11:40;99806.22;;;6.09;86.92
81372;BME280;70827;52.206;5.294;2024-03-02T03:14:09;99816.44;;;6.14;86.76
81372;BME280;70827;52.206;5.294;2024-03-02T03:16:35;99813.00;;;6.15;86.54
81372;BME280;70827;52.206;5.294;2024-03-02T03:19:00;99809.59;;;6.13;86.26
81372;BME280;70827;52.206;5.294;2024-03-02T03:21:26;99806.25;;;6.08;86.13
81372;BME280;70827;52.206;5.294;2024-03-02T03:23:51;99812.25;;;6.07;86.02
81372;BME280;70827;52.206;5.294;2024-03-02T03:26:17;99815.72;;;6.02;85.34
81372;BME280;70827;52.206;5.294;2024-03-02T03:28:43;99814.00;;;6.01;85.27
81372;BME280;70827;52.206;5.294;2024-03-02T03:31:11;99809.63;;;6.11;84.61
81372;BME280;70827;52.206;5.294;2024-03-02T03:33:36;99828.41;;;6.16;84.34
81372;BME280;70827;52.206;5.294;2024-03-02T03:36:02;99821.75;;;6.00;84.50
81372;BME280;70827;52.206;5.294;2024-03-02T03:38:28;99827.63;;;6.11;84.05
81372;BME280;70827;52.206;5.294;2024-03-02T03:40:54;99828.44;;;6.15;83.60
81372;BME280;70827;52.206;5.294;2024-03-02T03:43:19;99826.75;;;6.12;83.59
81372;BME280;70827;52.206;5.294;2024-03-02T03:45:45;99833.66;;;6.10;83.22
81372;BME280;70827;52.206;5.294;2024-03-02T03:48:13;99837.84;;;6.16;82.88
81372;BME280;70827;52.206;5.294;2024-03-02T03:50:39;99833.47;;;6.25;82.38
81372;BME280;70827;52.206;5.294;2024-03-02T03:53:04;99843.91;;;6.13;82.04
81372;BME280;70827;52.206;5.294;2024-03-02T03:55:30;99836.09;;;6.22;81.25
81372;BME280;70827;52.206;5.294;2024-03-02T03:57:56;99845.44;;;6.28;81.06
81372;BME280;70827;52.206;5.294;2024-03-02T04:00:21;99850.69;;;6.19;80.96
81372;BME280;70827;52.206;5.294;2024-03-02T04:02:47;99843.81;;;6.22;80.88
81372;BME280;70827;52.206;5.294;2024-03-02T04:05:15;99836.88;;;6.26;80.99
81372;BME280;70827;52.206;5.294;2024-03-02T04:07:40;99845.50;;;6.23;80.83
81372;BME280;70827;52.206;5.294;2024-03-02T04:10:08;99842.94;;;6.23;80.70
81372;BME280;70827;52.206;5.294;2024-03-02T04:12:33;99848.94;;;6.21;80.64
81372;BME280;70827;52.206;5.294;2024-03-02T04:14:59;99841.25;;;6.19;80.77
81372;BME280;70827;52.206;5.294;2024-03-02T04:17:25;99855.72;;;6.28;80.79
81372;BME280;70827;52.206;5.294;2024-03-02T04:19:50;99859.16;;;6.28;80.68
81372;BME280;70827;52.206;5.294;2024-03-02T04:22:18;99852.19;;;6.37;80.80
81372;BME280;70827;52.206;5.294;2024-03-02T04:24:44;99859.09;;;6.33;80.58
81372;BME280;70827;52.206;5.294;2024-03-02T04:27:09;99854.06;;;6.25;80.83
81372;BME280;70827;52.206;5.294;2024-03-02T04:29:35;99838.53;;;6.30;80.81
81372;BME280;70827;52.206;5.294;2024-03-02T04:32:01;99864.34;;;6.25;80.85
81372;BME280;70827;52.206;5.294;2024-03-02T04:34:26;99860.03;;;6.27;81.04
81372;BME280;70827;52.206;5.294;2024-03-02T04:36:52;99857.41;;;6.30;81.21
81372;BME280;70827;52.206;5.294;2024-03-02T04:39:20;99853.19;;;6.26;81.15
81372;BME280;70827;52.206;5.294;2024-03-02T04:41:46;99860.78;;;6.36;80.87
81372;BME280;70827;52.206;5.294;2024-03-02T04:44:11;99857.28;;;6.43;81.44
81372;BME280;70827;52.206;5.294;2024-03-02T04:46:37;99864.22;;;6.34;81.45
81372;BME280;70827;52.206;5.294;2024-03-02T04:49:02;99864.25;;;6.33;81.32
81372;BME280;70827;52.206;5.294;2024-03-02T04:51:28;99872.63;;;6.49;81.46
81372;BME280;70827;52.206;5.294;2024-03-02T04:53:54;99878.78;;;6.36;81.32
81372;BME280;70827;52.206;5.294;2024-03-02T04:56:22;99876.19;;;6.37;81.24
81372;BME280;70827;52.206;5.294;2024-03-02T04:58:48;99866.88;;;6.28;81.53
81372;BME280;70827;52.206;5.294;2024-03-02T05:01:13;99876.22;;;6.34;81.32
81372;BME280;70827;52.206;5.294;2024-03-02T05:03:39;99884.88;;;6.30;81.66
81372;BME280;70827;52.206;5.294;2024-03-02T05:06:04;99886.66;;;6.25;81.40
81372;BME280;70827;52.206;5.294;2024-03-02T05:08:30;99883.25;;;6.23;81.07
81372;BME280;70827;52.206;5.294;2024-03-02T05:10:56;99884.09;;;6.25;81.48
81372;BME280;70827;52.206;5.294;2024-03-02T05:13:24;99882.41;;;6.19;81.24
81372;BME280;70827;52.206;5.294;2024-03-02T05:15:49;99895.34;;;6.13;81.07
81372;BME280;70827;52.206;5.294;2024-03-02T05:18:15;99887.59;;;6.16;81.09
81372;BME280;70827;52.206;5.294;2024-03-02T05:20:40;99882.41;;;6.22;80.85
81372;BME280;70827;52.206;5.294;2024-03-02T05:23:06;99895.38;;;6.12;80.99
81372;BME280;70827;52.206;5.294;2024-03-02T05:25:32;99903.81;;;6.21;80.77
81372;BME280;70827;52.206;5.294;2024-03-02T05:27:57;99902.88;;;6.31;80.73
81372;BME280;70827;52.206;5.294;2024-03-02T05:30:25;99889.41;;;6.10;80.76
81372;BME280;70827;52.206;5.294;2024-03-02T05:32:51;99900.59;;;6.02;80.48
81372;BME280;70827;52.206;5.294;2024-03-02T05:35:17;99901.44;;;6.08;80.07
81372;BME280;70827;52.206;5.294;2024-03-02T05:37:42;99904.91;;;6.05;80.36
81372;BME280;70827;52.206;5.294;2024-03-02T05:40:09;99900.59;;;6.04;80.07
81372;BME280;70827;52.206;5.294;2024-03-02T05:42:34;99890.16;;;6.16;79.43
81372;BME280;70827;52.206;5.294;2024-03-02T05:45:00;99887.69;;;6.09;79.70
81372;BME280;70827;52.206;5.294;2024-03-02T05:47:28;99885.16;;;6.04;79.31
81372;BME280;70827;52.206;5.294;2024-03-02T05:49:54;99906.59;;;6.04;79.31
81372;BME280;70827;52.206;5.294;2024-03-02T05:52:19;99901.56;;;5.95;79.24
81372;BME280;70827;52.206;5.294;2024-03-02T05:54:45;99908.41;;;5.95;79.26
81372;BME280;70827;52.206;5.294;2024-03-02T05:57:10;99905.00;;;5.87;79.24
81372;BME280;70827;52.206;5.294;2024-03-02T05:59:36;99904.16;;;5.88;79.02
81372;BME280;70827;52.206;5.294;2024-03-02T06:02:02;99906.75;;;5.91;78.97
81372;BME280;70827;52.206;5.294;2024-03-02T06:04:30;99918.66;;;5.98;78.50
81372;BME280;70827;52.206;5.294;2024-03-02T06:06:55;99912.72;;;5.87;78.28
81372;BME280;70827;52.206;5.294;2024-03-02T06:09:21;99923.06;;;5.90;78.23
81372;BME280;70827;52.206;5.294;2024-03-02T06:11:47;99917.81;;;5.97;78.38
81372;BME280;70827;52.206;5.294;2024-03-02T06:14:12;99930.72;;;5.94;77.89
81372;BME280;70827;52.206;5.294;2024-03-02T06:16:38;99925.50;;;5.99;77.86
81372;BME280;70827;52.206;5.294;2024-03-02T06:19:03;99925.38;;;6.13;77.39
81372;BME280;70827;52.206;5.294;2024-03-02T06:21:32;99926.16;;;6.19;77.13
81372;BME280;70827;52.206;5.294;2024-03-02T06:23:57;99931.44;;;6.07;77.51
81372;BME280;70827;52.206;5.294;2024-03-02T06:26:23;99931.44;;;6.07;77.49
81372;BME280;70827;52.206;5.294;2024-03-02T06:28:48;99940.72;;;6.20;77.60
81372;BME280;70827;52.206;5.294;2024-03-02T06:31:14;99937.31;;;6.18;77.55
81372;BME280;70827;52.206;5.294;2024-03-02T06:33:40;99949.38;;;6.15;77.34
81372;BME280;70827;52.206;5.294;2024-03-02T06:36:06;99936.53;;;6.12;77.82
81372;BME280;70827;52.206;5.294;2024-03-02T06:38:34;99943.47;;;6.07;77.86
81372;BME280;70827;52.206;5.294;2024-03-02T06:40:59;99950.16;;;6.20;77.95
81372;BME280;70827;52.206;5.294;2024-03-02T06:43:25;99946.75;;;6.18;78.01
81372;BME280;70827;52.206;5.294;2024-03-02T06:45:51;99950.16;;;6.24;77.64
81372;BME280;70827;52.206;5.294;2024-03-02T06:48:16;99939.81;;;6.27;77.87
81372;BME280;70827;52.206;5.294;2024-03-02T06:50:42;99957.00;;;6.25;77.84
81372;BME280;70827;52.206;5.294;2024-03-02T06:53:09;99949.28;;;6.21;77.57
81372;BME280;70827;52.206;5.294;2024-03-02T06:55:37;99949.22;;;6.28;77.60
81372;BME280;70827;52.206;5.294;2024-03-02T06:58:03;99951.00;;;6.23;77.29
81372;BME280;70827;52.206;5.294;2024-03-02T07:00:29;99959.44;;;6.34;76.96
81372;BME280;70827;52.206;5.294;2024-03-02T07:02:54;99959.53;;;6.27;76.80
81372;BME280;70827;52.206;5.294;2024-03-02T07:05:20;99954.25;;;6.38;76.20
81372;BME280;70827;52.206;5.294;2024-03-02T07:07:46;99957.66;;;6.44;76.02
81372;BME280;70827;52.206;5.294;2024-03-02T07:10:11;99950.72;;;6.49;75.88
81372;BME280;70827;52.206;5.294;2024-03-02T07:12:39;99948.16;;;6.48;75.41
81372;BME280;70827;52.206;5.294;2024-03-02T07:15:06;99952.41;;;6.52;74.41
81372;BME280;70827;52.206;5.294;2024-03-02T07:17:32;99952.22;;;6.67;74.10
81372;BME280;70827;52.206;5.294;2024-03-02T07:19:58;99953.91;;;6.70;73.36
81372;BME280;70827;52.206;5.294;2024-03-02T07:22:24;99942.75;;;6.69;73.81
81372;BME280;70827;52.206;5.294;2024-03-02T07:24:50;99958.25;;;6.64;73.38
81372;BME280;70827;52.206;5.294;2024-03-02T07:27:16;99957.13;;;6.85;73.18
81372;BME280;70827;52.206;5.294;2024-03-02T07:29:44;99960.63;;;6.81;73.05
81372;BME280;70827;52.206;5.294;2024-03-02T07:32:10;99962.38;;;6.79;72.59
81372;BME280;70827;52.206;5.294;2024-03-02T07:34:36;99959.50;;;7.02;72.21
81372;BME280;70827;52.206;5.294;2024-03-02T07:37:02;99960.38;;;7.00;71.75
81372;BME280;70827;52.206;5.294;2024-03-02T07:39:27;99968.84;;;7.11;71.72
81372;BME280;70827;52.206;5.294;2024-03-02T07:41:53;99973.31;;;6.97;71.25
81372;BME280;70827;52.206;5.294;2024-03-02T07:44:19;99982.66;;;7.04;71.36
81372;BME280;70827;52.206;5.294;2024-03-02T07:46:48;99982.66;;;7.04;71.60
81372;BME280;70827;52.206;5.294;2024-03-02T07:49:14;99977.50;;;7.04;71.49
81372;BME280;70827;52.206;5.294;2024-03-02T07:51:39;99989.81;;;6.82;71.21
81372;BME280;70827;52.206;5.294;2024-03-02T07:54:05;99992.44;;;6.77;71.55
81372;BME280;70827;52.206;5.294;2024-03-02T07:56:30;99978.63;;;6.83;71.71
81372;BME280;70827;52.206;5.294;2024-03-02T07:58:56;99991.66;;;6.71;72.00
81372;BME280;70827;52.206;5.294;2024-03-02T08:01:22;99988.97;;;6.81;72.15
81372;BME280;70827;52.206;5.294;2024-03-02T08:03:50;99996.91;;;6.63;72.47
81372;BME280;70827;52.206;5.294;2024-03-02T08:06:16;99978.75;;;6.74;72.68
81372;BME280;70827;52.206;5.294;2024-03-02T08:08:42;99995.19;;;6.63;72.55
81372;BME280;70827;52.206;5.294;2024-03-02T08:11:08;100001.16;;;6.66;73.15
81372;BME280;70827;52.206;5.294;2024-03-02T08:13:33;100005.53;;;6.60;73.19
81372;BME280;70827;52.206;5.294;2024-03-02T08:15:59;99998.63;;;6.62;73.54
81372;BME280;70827;52.206;5.294;2024-03-02T08:18:24;99998.50;;;6.72;73.54
81372;BME280;70827;52.206;5.294;2024-03-02T08:20:53;99995.84;;;6.79;73.58
81372;BME280;70827;52.206;5.294;2024-03-02T08:23:18;100002.06;;;6.61;73.50
81372;BME280;70827;52.206;5.294;2024-03-02T08:25:44;100004.47;;;6.77;73.28
81372;BME280;70827;52.206;5.294;2024-03-02T08:28:10;100009.31;;;7.01;73.00
81372;BME280;70827;52.206;5.294;2024-03-02T08:30:36;100001.38;;;7.16;73.51
81372;BME280;70827;52.206;5.294;2024-03-02T08:33:01;100008.56;;;6.94;72.75
81372;BME280;70827;52.206;5.294;2024-03-02T08:35:27;99998.91;;;7.10;72.78
81372;BME280;70827;52.206;5.294;2024-03-02T08:37:55;100002.16;;;7.24;72.45
81372;BME280;70827;52.206;5.294;2024-03-02T08:40:21;99999.31;;;7.43;72.15
81372;BME280;70827;52.206;5.294;2024-03-02T08:42:46;99996.50;;;7.58;71.75
81372;BME280;70827;52.206;5.294;2024-03-02T08:45:12;99998.41;;;7.45;71.47
81372;BME280;70827;52.206;5.294;2024-03-02T08:47:40;100002.59;;;7.52;71.20
81372;BME280;70827;52.206;5.294;2024-03-02T08:50:07;99996.25;;;7.75;70.75
81372;BME280;70827;52.206;5.294;2024-03-02T08:52:33;100000.38;;;7.85;70.53
81372;BME280;70827;52.206;5.294;2024-03-02T08:55:01;100009.13;;;7.76;69.38
81372;BME280;70827;52.206;5.294;2024-03-02T08:57:27;99997.44;;;8.05;69.47
81372;BME280;70827;52.206;5.294;2024-03-02T08:59:52;100003.53;;;8.02;69.14
81372;BME280;70827;52.206;5.294;2024-03-02T09:02:18;100006.06;;;8.07;69.11
81372;BME280;70827;52.206;5.294;2024-03-02T09:04:44;100003.56;;;8.50;68.10
81372;BME280;70827;52.206;5.294;2024-03-02T09:07:09;100003.59;;;8.49;67.53
81372;BME280;70827;52.206;5.294;2024-03-02T09:09:35;100009.72;;;8.44;67.55
81372;BME280;70827;52.206;5.294;2024-03-02T09:12:04;100002.91;;;8.40;66.65
81372;BME280;70827;52.206;5.294;2024-03-02T09:14:30;100006.81;;;8.61;66.20
81372;BME280;70827;52.206;5.294;2024-03-02T09:16:55;100002.06;;;8.40;65.32
81372;BME280;70827;52.206;5.294;2024-03-02T09:19:21;100008.00;;;8.43;65.42
81372;BME280;70827;52.206;5.294;2024-03-02T09:21:47;100012.25;;;8.91;64.85
81372;BME280;70827;52.206;5.294;2024-03-02T09:24:12;100018.16;;;8.53;64.51
81372;BME280;70827;52.206;5.294;2024-03-02T09:26:38;100014.72;;;8.97;64.03
81372;BME280;70827;52.206;5.294;2024-03-02T09:29:06;100010.84;;;8.76;63.88
81372;BME280;70827;52.206;5.294;2024-03-02T09:31:32;100011.16;;;9.01;63.77
81372;BME280;70827;52.206;5.294;2024-03-02T09:33:57;100026.16;;;8.84;63.27
81372;BME280;70827;52.206;5.294;2024-03-02T09:36:23;100018.47;;;9.24;62.87
81372;BME280;70827;52.206;5.294;2024-03-02T09:38:48;100018.81;;;9.05;62.39
81372;BME280;70827;52.206;5.294;2024-03-02T09:41:14;100012.88;;;9.02;62.53
81372;BME280;70827;52.206;5.294;2024-03-02T09:43:40;100009.16;;;9.15;61.79
81372;BME280;70827;52.206;5.294;2024-03-02T09:46:09;100031.59;;;9.13;60.77
81372;BME280;70827;52.206;5.294;2024-03-02T09:48:34;100018.59;;;9.55;60.67
81372;BME280;70827;52.206;5.294;2024-03-02T09:51:00;100022.50;;;9.74;60.27
81372;BME280;70827;52.206;5.294;2024-03-02T09:53:26;100007.06;;;9.70;59.87
81372;BME280;70827;52.206;5.294;2024-03-02T09:55:55;100016.72;;;9.99;59.77
81372;BME280;70827;52.206;5.294;2024-03-02T09:58:20;100025.88;;;9.78;59.29
81372;BME280;70827;52.206;5.294;2024-03-02T10:00:46;100010.56;;;10.03;59.25
81372;BME280;70827;52.206;5.294;2024-03-02T10:03:14;100013.88;;;10.09;58.27
81372;BME280;70827;52.206;5.294;2024-03-02T10:05:40;100025.13;;;10.07;57.84
81372;BME280;70827;52.206;5.294;2024-03-02T10:08:06;100027.59;;;10.13;57.77
81372;BME280;70827;52.206;5.294;2024-03-02T10:10:35;100015.78;;;10.37;56.32
81372;BME280;70827;52.206;5.294;2024-03-02T10:13:04;100013.44;;;9.90;56.18
81372;BME280;70827;52.206;5.294;2024-03-02T10:15:29;100027.38;;;10.20;55.86
81372;BME280;70827;52.206;5.294;2024-03-02T10:17:55;100021.13;;;9.95;55.71
81372;BME280;70827;52.206;5.294;2024-03-02T10:20:27;100036.69;;;10.63;55.29
81372;BME280;70827;52.206;5.294;2024-03-02T10:22:52;100034.03;;;10.32;54.47
81372;BME280;70827;52.206;5.294;2024-03-02T10:25:31;100010.94;;;10.55;53.88
81372;BME280;70827;52.206;5.294;2024-03-02T10:27:58;100014.78;;;10.73;53.54
81372;BME280;70827;52.206;5.294;2024-03-02T10:30:23;100011.75;;;10.59;54.99
81372;BME280;70827;52.206;5.294;2024-03-02T10:32:49;100005.03;;;11.40;53.46
81372;BME280;70827;52.206;5.294;2024-03-02T10:35:15;100009.69;;;11.01;52.83
81372;BME280;70827;52.206;5.294;2024-03-02T10:37:44;100017.38;;;10.73;52.82
81372;BME280;70827;52.206;5.294;2024-03-02T10:40:11;100009.16;;;10.89;51.89
81372;BME280;70827;52.206;5.294;2024-03-02T10:42:37;100003.59;;;11.32;52.29
81372;BME280;70827;52.206;5.294;2024-03-02T10:45:04;100008.59;;;10.79;51.04
81372;BME280;70827;52.206;5.294;2024-03-02T10:47:29;99999.59;;;11.20;51.37
81372;BME280;70827;52.206;5.294;2024-03-02T10:49:57;99993.63;;;10.58;51.28
81372;BME280;70827;52.206;5.294;2024-03-02T10:52:24;99984.28;;;11.40;51.40
81372;BME280;70827;52.206;5.294;2024-03-02T10:54:52;100002.56;;;11.08;49.95
81372;BME280;70827;52.206;5.294;2024-03-02T10:57:19;99983.31;;;11.44;49.71
81372;BME280;70827;52.206;5.294;2024-03-02T10:59:51;99977.06;;;11.50;50.88
81372;BME280;70827;52.206;5.294;2024-03-02T11:02:17;99972.28;;;11.08;50.77
81372;BME280;70827;52.206;5.294;2024-03-02T11:04:45;99972.19;;;12.45;50.89
81372;BME280;70827;52.206;5.294;2024-03-02T11:07:13;99976.28;;;11.74;50.54
81372;BME280;70827;52.206;5.294;2024-03-02T11:09:41;99982.25;;;12.04;50.31
81372;BME280;70827;52.206;5.294;2024-03-02T11:12:12;99975.91;;;11.87;48.76
81372;BME280;70827;52.206;5.294;2024-03-02T11:14:41;99970.44;;;11.68;48.99
81372;BME280;70827;52.206;5.294;2024-03-02T11:17:06;99974.84;;;11.94;49.95
81372;BME280;70827;52.206;5.294;2024-03-02T11:19:32;99973.91;;;12.70;48.12
81372;BME280;70827;52.206;5.294;2024-03-02T11:21:59;99977.03;;;12.04;48.42
81372;BME280;70827;52.206;5.294;2024-03-02T11:24:31;99989.44;;;12.71;48.81
81372;BME280;70827;52.206;5.294;2024-03-02T11:26:57;99993.44;;;12.56;47.06
81372;BME280;70827;52.206;5.294;2024-03-02T11:29:46;99984.25;;;11.96;47.72
81372;BME280;70827;52.206;5.294;2024-03-02T11:32:16;99986.59;;;12.54;46.86
81372;BME280;70827;52.206;5.294;2024-03-02T11:34:43;99989.78;;;12.37;46.81
81372;BME280;70827;52.206;5.294;2024-03-02T11:37:10;99962.19;;;13.28;46.71
81372;BME280;70827;52.206;5.294;2024-03-02T11:39:35;99984.78;;;13.28;44.24
81372;BME280;70827;52.206;5.294;2024-03-02T11:42:01;99974.66;;;12.97;45.26
81372;BME280;70827;52.206;5.294;2024-03-02T11:44:27;99967.06;;;12.90;46.48
81372;BME280;70827;52.206;5.294;2024-03-02T11:46:58;99959.31;;;12.65;46.32
81372;BME280;70827;52.206;5.294;2024-03-02T11:49:37;99959.22;;;13.37;44.57
81372;BME280;70827;52.206;5.294;2024-03-02T11:52:03;99969.31;;;13.00;45.20
81372;BME280;70827;52.206;5.294;2024-03-02T11:54:30;99964.91;;;13.02;45.71
81372;BME280;70827;52.206;5.294;2024-03-02T11:56:57;99960.09;;;12.68;45.65
81372;BME280;70827;52.206;5.294;2024-03-02T11:59:24;99961.06;;;13.12;45.05
81372;BME280;70827;52.206;5.294;2024-03-02T12:01:50;99958.28;;;12.70;45.29
81372;BME280;70827;52.206;5.294;2024-03-02T12:04:18;99965.84;;;12.77;45.36
81372;BME280;70827;52.206;5.294;2024-03-02T12:06:43;99955.41;;;13.88;45.29
81372;BME280;70827;52.206;5.294;2024-03-02T12:09:09;99944.59;;;13.11;45.55
81372;BME280;70827;52.206;5.294;2024-03-02T12:11:35;99942.28;;;13.27;44.10
81372;BME280;70827;52.206;5.294;2024-03-02T12:14:00;99938.75;;;12.83;45.03
81372;BME280;70827;52.206;5.294;2024-03-02T12:16:26;99946.31;;;13.12;43.86
81372;BME280;70827;52.206;5.294;2024-03-02T12:18:52;99930.31;;;13.00;43.95
81372;BME280;70827;52.206;5.294;2024-03-02T12:21:20;99929.78;;;13.13;43.27
81372;BME280;70827;52.206;5.294;2024-03-02T12:23:46;99923.13;;;13.50;42.76
81372;BME280;70827;52.206;5.294;2024-03-02T12:26:11;99924.56;;;13.79;42.93
81372;BME280;70827;52.206;5.294;2024-03-02T12:28:37;99928.53;;;14.08;43.73
81372;BME280;70827;52.206;5.294;2024-03-02T12:31:03;99938.78;;;13.70;41.67
81372;BME280;70827;52.206;5.294;2024-03-02T12:33:29;99917.19;;;13.89;42.72
81372;BME280;70827;52.206;5.294;2024-03-02T12:35:54;99917.38;;;13.64;41.35
81372;BME280;70827;52.206;5.294;2024-03-02T12:38:24;99916.38;;;14.27;41.74
81372;BME280;70827;52.206;5.294;2024-03-02T12:40:51;99913.03;;;14.83;41.21
81372;BME280;70827;52.206;5.294;2024-03-02T12:43:17;99913.69;;;13.25;42.90
81372;BME280;70827;52.206;5.294;2024-03-02T12:45:43;99906.81;;;13.46;42.05
81372;BME280;70827;52.206;5.294;2024-03-02T12:48:08;99908.50;;;13.47;43.07
81372;BME280;70827;52.206;5.294;2024-03-02T12:50:34;99896.13;;;13.93;42.05
81372;BME280;70827;52.206;5.294;2024-03-02T12:53:00;99900.06;;;14.82;41.74
81372;BME280;70827;52.206;5.294;2024-03-02T12:55:28;99890.16;;;15.07;40.63
81372;BME280;70827;52.206;5.294;2024-03-02T12:57:53;99896.25;;;15.25;39.75
81372;BME280;70827;52.206;5.294;2024-03-02T13:00:20;99873.22;;;14.80;40.72
81372;BME280;70827;52.206;5.294;2024-03-02T13:02:46;99909.28;;;14.10;39.72